createdAt,value
2019-02-16T00:02:28.663Z,3.51
2019-02-16T00:04:57.511Z,3.63
2019-02-16T00:07:26.399Z,3.69
2019-02-16T00:09:55.259Z,3.60
2019-02-16T00:12:24.427Z,3.55
2019-02-16T00:14:53.298Z,3.61
2019-02-16T00:17:22.157Z,3.49
2019-02-16T00:19:51.035Z,3.37
2019-02-16T00:22:19.899Z,3.09
2019-02-16T00:24:48.775Z,2.99
2019-02-16T00:27:17.665Z,3.18
2019-02-16T00:29:46.509Z,3.07
2019-02-16T00:32:15.939Z,2.91
2019-02-16T00:34:44.829Z,2.70
2019-02-16T00:37:13.760Z,2.63
2019-02-16T00:39:42.625Z,2.82
2019-02-16T00:42:11.490Z,2.65
2019-02-16T00:44:40.401Z,2.74
2019-02-16T00:47:09.272Z,2.70
2019-02-16T00:49:38.141Z,2.60
2019-02-16T00:52:07.019Z,2.58
2019-02-16T00:54:35.866Z,2.55
2019-02-16T00:57:04.753Z,2.45
2019-02-16T00:59:33.607Z,2.35
2019-02-16T01:02:02.502Z,2.46
2019-02-16T01:04:31.383Z,2.50
2019-02-16T01:07:00.247Z,2.19
2019-02-16T01:09:29.111Z,2.19
2019-02-16T01:11:58.016Z,2.13
2019-02-16T01:14:26.865Z,2.24
2019-02-16T01:16:55.743Z,2.27
2019-02-16T01:19:24.617Z,2.11
2019-02-16T01:21:53.475Z,2.12
2019-02-16T01:24:22.343Z,2.12
2019-02-16T01:26:51.224Z,2.10
2019-02-16T01:29:20.095Z,2.03
2019-02-16T01:31:48.958Z,2.04
2019-02-16T01:34:17.841Z,1.89
2019-02-16T01:36:46.707Z,1.97
2019-02-16T01:39:15.584Z,1.98
2019-02-16T01:41:44.453Z,1.92
2019-02-16T01:44:13.320Z,1.69
2019-02-16T01:46:42.197Z,1.59
2019-02-16T01:49:11.051Z,1.51
2019-02-16T01:51:39.947Z,1.62
2019-02-16T01:54:08.990Z,1.59
2019-02-16T01:56:37.881Z,1.60
2019-02-16T01:59:07.087Z,1.53
2019-02-16T02:01:35.969Z,1.55
2019-02-16T02:04:05.078Z,1.62
2019-02-16T02:06:33.947Z,1.47
2019-02-16T02:09:04.517Z,1.61
2019-02-16T02:11:33.377Z,1.77
2019-02-16T02:14:02.257Z,1.77
2019-02-16T02:16:31.137Z,1.98
2019-02-16T02:19:00.003Z,1.84
2019-02-16T02:21:28.858Z,2.07
2019-02-16T02:23:57.729Z,1.97
2019-02-16T02:26:26.588Z,2.00
2019-02-16T02:28:55.458Z,2.10
2019-02-16T02:31:24.323Z,2.16
2019-02-16T02:33:53.188Z,2.03
2019-02-16T02:36:22.047Z,1.95
2019-02-16T02:38:50.915Z,2.07
2019-02-16T02:41:19.797Z,1.99
2019-02-16T02:43:48.662Z,2.01
2019-02-16T02:46:17.515Z,1.95
2019-02-16T02:48:46.396Z,1.77
2019-02-16T02:51:15.254Z,1.61
2019-02-16T02:53:44.114Z,1.46
2019-02-16T02:56:12.966Z,1.36
2019-02-16T02:58:41.812Z,1.40
2019-02-16T03:01:10.719Z,1.34
2019-02-16T03:03:39.580Z,1.45
2019-02-16T03:06:08.458Z,1.53
2019-02-16T03:08:37.326Z,1.55
2019-02-16T03:11:06.184Z,1.51
2019-02-16T03:13:35.034Z,1.57
2019-02-16T03:16:03.917Z,1.55
2019-02-16T03:18:32.791Z,1.21
2019-02-16T03:21:01.649Z,1.17
2019-02-16T03:23:30.708Z,1.12
2019-02-16T03:26:05.285Z,1.25
2019-02-16T03:28:37.578Z,1.35
2019-02-16T03:31:39.679Z,1.53
2019-02-16T03:34:23.349Z,1.54
2019-02-16T03:37:14.195Z,1.46
2019-02-16T03:39:44.618Z,1.66
2019-02-16T03:42:13.510Z,1.68
2019-02-16T03:44:42.376Z,1.73
2019-02-16T03:47:11.251Z,1.73
2019-02-16T03:49:40.112Z,1.82
2019-02-16T03:52:13.983Z,1.84
2019-02-16T03:54:39.578Z,1.95
2019-02-16T03:57:08.446Z,1.90
2019-02-16T03:59:37.328Z,1.78
2019-02-16T04:02:06.197Z,1.88
2019-02-16T04:04:35.091Z,1.73
2019-02-16T04:07:03.982Z,1.65
2019-02-16T04:09:32.862Z,1.47
2019-02-16T04:12:01.756Z,1.43
2019-02-16T04:14:30.627Z,1.37
2019-02-16T04:16:59.480Z,1.08
2019-02-16T04:19:28.372Z,0.89
2019-02-16T04:21:57.235Z,1.02
2019-02-16T04:24:26.122Z,1.01
2019-02-16T04:26:54.968Z,1.04
2019-02-16T04:29:23.853Z,1.07
2019-02-16T04:31:52.743Z,1.06
2019-02-16T04:34:21.632Z,1.11
2019-02-16T04:36:50.546Z,1.03
2019-02-16T04:39:19.402Z,1.09
2019-02-16T04:41:48.302Z,1.12
2019-02-16T04:44:17.176Z,1.10
2019-02-16T04:46:46.032Z,1.00
2019-02-16T04:49:14.923Z,0.91
2019-02-16T04:51:43.790Z,1.02
2019-02-16T04:54:12.661Z,0.93
2019-02-16T04:56:41.537Z,0.87
2019-02-16T04:59:10.414Z,0.81
2019-02-16T05:01:39.312Z,0.67
2019-02-16T05:04:08.166Z,0.39
2019-02-16T05:06:37.046Z,0.52
2019-02-16T05:09:06.754Z,0.68
2019-02-16T05:11:35.622Z,0.56
2019-02-16T05:14:04.500Z,0.45
2019-02-16T05:16:33.369Z,0.35
2019-02-16T05:19:02.228Z,0.30
2019-02-16T05:21:31.096Z,0.18
2019-02-16T05:24:00.029Z,0.31
2019-02-16T05:26:28.890Z,0.34
2019-02-16T05:28:57.750Z,0.25
2019-02-16T05:31:26.655Z,0.22
2019-02-16T05:33:55.513Z,0.11
2019-02-16T05:36:24.370Z,0.09
2019-02-16T05:38:53.258Z,0.05
2019-02-16T05:41:22.130Z,-0.02
2019-02-16T05:43:50.994Z,0.03
2019-02-16T05:46:19.932Z,0.13
2019-02-16T05:48:48.776Z,0.11
2019-02-16T05:51:17.704Z,0.11
2019-02-16T05:53:46.584Z,0.03
2019-02-16T05:56:15.456Z,0.00
2019-02-16T05:58:44.340Z,-0.05
2019-02-16T06:01:13.196Z,0.00
2019-02-16T06:03:43.018Z,0.03
2019-02-16T06:06:11.861Z,-0.05
2019-02-16T06:08:40.738Z,-0.12
2019-02-16T06:11:09.622Z,-0.04
2019-02-16T06:13:38.518Z,-0.03
2019-02-16T06:16:07.374Z,0.01
2019-02-16T06:18:36.254Z,-0.01
2019-02-16T06:21:05.122Z,-0.04
2019-02-16T06:23:33.989Z,-0.04
2019-02-16T06:26:02.856Z,-0.07
2019-02-16T06:28:31.793Z,-0.10
2019-02-16T06:31:00.739Z,-0.07
2019-02-16T06:33:29.557Z,-0.09
2019-02-16T06:36:00.076Z,0.04
2019-02-16T06:38:28.942Z,0.01
2019-02-16T06:40:57.822Z,-0.16
2019-02-16T06:43:26.727Z,-0.15
2019-02-16T06:45:55.601Z,-0.19
2019-02-16T06:48:24.450Z,-0.09
2019-02-16T06:50:53.333Z,-0.12
2019-02-16T06:53:22.196Z,-0.21
2019-02-16T06:55:52.772Z,-0.24
2019-02-16T06:58:21.677Z,-0.04
2019-02-16T07:00:50.520Z,0.05
2019-02-16T07:03:19.381Z,0.16
2019-02-16T07:05:48.252Z,0.02
2019-02-16T07:08:17.128Z,0.06
2019-02-16T07:10:45.996Z,0.22
2019-02-16T07:13:14.884Z,0.37
2019-02-16T07:15:45.392Z,0.50
2019-02-16T07:18:24.559Z,0.47
2019-02-16T07:20:53.442Z,0.52
2019-02-16T07:23:22.897Z,0.80
2019-02-16T07:25:51.847Z,0.84
2019-02-16T07:28:20.724Z,0.76
2019-02-16T07:30:49.616Z,0.70
2019-02-16T07:33:18.539Z,0.89
2019-02-16T07:35:47.455Z,1.00
2019-02-16T07:38:16.317Z,1.00
2019-02-16T07:40:45.179Z,1.16
2019-02-16T07:43:15.683Z,1.25
2019-02-16T07:45:49.109Z,1.38
2019-02-16T07:48:19.676Z,1.54
2019-02-16T07:50:55.900Z,1.56
2019-02-16T07:53:38.191Z,1.77
2019-02-16T07:56:08.691Z,2.02
2019-02-16T07:58:41.701Z,2.18
2019-02-16T08:01:21.201Z,2.52
2019-02-16T08:03:51.704Z,2.73
2019-02-16T08:06:22.214Z,2.96
2019-02-16T08:08:52.720Z,3.06
2019-02-16T08:11:29.025Z,3.22
2019-02-16T08:13:59.561Z,3.53
2019-02-16T08:16:39.285Z,3.82
2019-02-16T08:19:26.112Z,3.76
2019-02-16T08:21:56.622Z,3.89
2019-02-16T08:24:43.558Z,3.93
2019-02-16T08:27:20.291Z,4.08
2019-02-16T08:29:56.763Z,4.10
2019-02-16T08:32:43.838Z,4.43
2019-02-16T08:35:23.024Z,4.65
2019-02-16T08:37:54.579Z,4.93
2019-02-16T08:40:25.037Z,4.75
2019-02-16T08:43:10.901Z,4.83
2019-02-16T08:45:50.653Z,4.90
2019-02-16T08:48:24.220Z,5.07
2019-02-16T08:50:54.735Z,5.21
2019-02-16T08:53:25.254Z,5.33
2019-02-16T08:55:58.549Z,5.41
2019-02-16T08:58:29.066Z,5.56
2019-02-16T09:01:05.327Z,5.70
2019-02-16T09:03:35.831Z,5.79
2019-02-16T09:06:06.341Z,5.88
2019-02-16T09:08:45.928Z,6.00
2019-02-16T09:11:34.467Z,6.02
2019-02-16T09:14:04.975Z,6.17
2019-02-16T09:16:51.748Z,6.25
2019-02-16T09:19:22.238Z,6.41
2019-02-16T09:21:53.435Z,6.41
2019-02-16T09:24:23.636Z,6.53
2019-02-16T09:26:54.171Z,6.65
2019-02-16T09:29:24.676Z,6.65
2019-02-16T09:31:54.884Z,6.76
2019-02-16T09:34:25.080Z,6.88
2019-02-16T09:37:04.396Z,6.93
2019-02-16T09:39:34.597Z,7.00
2019-02-16T09:42:04.816Z,7.09
2019-02-16T09:44:40.661Z,7.18
2019-02-16T09:47:17.091Z,7.27
2019-02-16T09:49:59.343Z,7.28
2019-02-16T09:52:32.261Z,7.40
2019-02-16T09:55:04.953Z,7.46
2019-02-16T09:57:37.660Z,7.53
2019-02-16T10:00:10.936Z,7.71
2019-02-16T10:02:43.771Z,7.79
2019-02-16T10:05:13.971Z,7.91
2019-02-16T10:07:44.205Z,7.99
2019-02-16T10:10:14.389Z,8.00
2019-02-16T10:12:50.441Z,8.17
2019-02-16T10:15:20.653Z,8.29
2019-02-16T10:18:07.337Z,8.37
2019-02-16T10:20:53.657Z,8.45
2019-02-16T10:23:35.744Z,8.48
2019-02-16T10:26:11.807Z,8.57
2019-02-16T10:28:42.006Z,8.69
2019-02-16T10:31:20.437Z,8.79
2019-02-16T10:34:01.871Z,8.88
2019-02-16T10:36:32.096Z,8.95
2019-02-16T10:39:19.707Z,9.02
2019-02-16T10:41:49.961Z,9.18
2019-02-16T10:44:20.173Z,9.19
2019-02-16T10:46:53.171Z,9.32
2019-02-16T10:49:32.637Z,9.34
2019-02-16T10:52:06.079Z,9.45
2019-02-16T10:54:42.439Z,9.46
2019-02-16T10:57:27.949Z,9.51
2019-02-16T11:00:00.807Z,9.65
2019-02-16T11:02:31.025Z,9.77
2019-02-16T11:05:17.834Z,9.87
2019-02-16T11:07:48.063Z,9.92
2019-02-16T11:10:36.344Z,9.93
2019-02-16T11:13:09.417Z,10.01
2019-02-16T11:15:57.699Z,10.34
2019-02-16T11:18:44.120Z,10.34
2019-02-16T11:21:14.423Z,10.17
2019-02-16T11:23:45.479Z,10.22
2019-02-16T11:26:27.839Z,10.36
2019-02-16T11:29:00.714Z,10.36
2019-02-16T11:31:33.609Z,10.44
2019-02-16T11:34:15.850Z,10.44
2019-02-16T11:36:54.778Z,10.44
2019-02-16T11:39:34.447Z,10.52
2019-02-16T11:42:04.690Z,10.64
2019-02-16T11:44:37.573Z,10.73
2019-02-16T11:47:07.790Z,10.80
2019-02-16T11:49:40.755Z,10.88
2019-02-16T11:52:27.554Z,10.99
2019-02-16T11:54:57.763Z,10.99
2019-02-16T11:57:27.977Z,11.05
2019-02-16T12:00:01.219Z,11.21
2019-02-16T12:02:43.641Z,11.26
2019-02-16T12:05:13.832Z,11.33
2019-02-16T12:07:44.033Z,11.40
2019-02-16T12:10:14.257Z,11.45
2019-02-16T12:12:50.418Z,11.59
2019-02-16T12:15:20.617Z,11.69
2019-02-16T12:17:53.813Z,11.76
2019-02-16T12:20:33.110Z,11.84
2019-02-16T12:23:01.827Z,11.84
2019-02-16T12:25:48.285Z,12.06
2019-02-16T12:28:24.378Z,12.06
2019-02-16T12:30:57.325Z,12.04
2019-02-16T12:33:36.426Z,12.04
2019-02-16T12:36:09.316Z,12.09
2019-02-16T12:39:04.334Z,12.17
2019-02-16T12:41:27.545Z,12.21
2019-02-16T12:43:57.795Z,12.35
2019-02-16T12:46:33.699Z,12.41
2019-02-16T12:49:06.621Z,12.36
2019-02-16T12:51:51.827Z,12.36
2019-02-16T12:54:22.355Z,12.33
2019-02-16T12:56:52.555Z,12.40
2019-02-16T12:59:22.781Z,12.50
2019-02-16T13:01:55.694Z,12.47
2019-02-16T13:04:25.904Z,12.53
2019-02-16T13:07:04.921Z,12.49
2019-02-16T13:09:35.168Z,12.51
2019-02-16T13:12:05.390Z,12.84
2019-02-16T13:14:38.545Z,12.73
2019-02-16T13:17:11.779Z,12.78
2019-02-16T13:20:00.569Z,12.82
2019-02-16T13:22:36.923Z,12.88
2019-02-16T13:25:24.690Z,12.93
2019-02-16T13:28:10.668Z,12.87
2019-02-16T13:30:43.341Z,12.85
2019-02-16T13:33:19.477Z,12.82
2019-02-16T13:35:49.699Z,12.93
2019-02-16T13:38:19.910Z,12.92
2019-02-16T13:40:52.592Z,12.89
2019-02-16T13:43:28.771Z,12.92
2019-02-16T13:45:58.976Z,12.91
2019-02-16T13:48:29.230Z,12.94
2019-02-16T13:51:04.943Z,12.92
2019-02-16T13:53:46.946Z,12.94
2019-02-16T13:56:17.904Z,12.99
2019-02-16T13:58:48.139Z,13.01
2019-02-16T14:01:18.404Z,12.99
2019-02-16T14:03:51.567Z,13.07
2019-02-16T14:06:24.478Z,13.09
2019-02-16T14:08:54.716Z,13.09
2019-02-16T14:11:30.947Z,13.22
2019-02-16T14:14:10.420Z,13.24
2019-02-16T14:16:40.621Z,13.18
2019-02-16T14:19:09.205Z,13.21
2019-02-16T14:21:37.783Z,13.21
2019-02-16T14:24:06.403Z,13.25
2019-02-16T14:26:34.969Z,13.30
2019-02-16T14:29:03.519Z,13.32
2019-02-16T14:31:32.103Z,13.24
2019-02-16T14:34:00.693Z,13.34
2019-02-16T14:36:29.241Z,13.52
2019-02-16T14:38:59.454Z,13.44
2019-02-16T14:41:28.004Z,13.40
2019-02-16T14:43:56.593Z,13.39
2019-02-16T14:46:25.708Z,13.26
2019-02-16T14:48:54.317Z,13.24
2019-02-16T14:51:22.901Z,13.11
2019-02-16T14:53:51.530Z,13.14
2019-02-16T14:56:20.143Z,13.14
2019-02-16T14:58:48.698Z,13.04
2019-02-16T15:01:17.280Z,13.08
2019-02-16T15:03:45.955Z,12.98
2019-02-16T15:06:14.542Z,12.92
2019-02-16T15:08:43.102Z,12.89
2019-02-16T15:11:11.677Z,12.78
2019-02-16T15:13:40.232Z,12.71
2019-02-16T15:16:08.816Z,12.64
2019-02-16T15:18:37.390Z,12.60
2019-02-16T15:21:05.968Z,12.58
2019-02-16T15:23:34.542Z,12.56
2019-02-16T15:26:03.111Z,12.50
2019-02-16T15:28:31.693Z,12.55
2019-02-16T15:31:00.268Z,12.46
2019-02-16T15:33:28.870Z,12.30
2019-02-16T15:35:57.437Z,12.31
2019-02-16T15:38:26.005Z,12.41
2019-02-16T15:40:54.576Z,12.37
2019-02-16T15:43:24.100Z,12.31
2019-02-16T15:45:52.654Z,12.28
2019-02-16T15:48:21.232Z,12.07
2019-02-16T15:50:49.800Z,12.04
2019-02-16T15:53:18.357Z,11.95
2019-02-16T15:55:46.954Z,11.87
2019-02-16T15:58:15.543Z,11.91
2019-02-16T16:00:44.107Z,11.79
2019-02-16T16:03:12.671Z,11.80
2019-02-16T16:05:41.242Z,11.68
2019-02-16T16:08:11.466Z,11.49
2019-02-16T16:10:58.035Z,11.35
2019-02-16T16:13:46.275Z,11.23
2019-02-16T16:16:25.184Z,11.05
2019-02-16T16:18:55.392Z,10.91
2019-02-16T16:21:28.740Z,10.79
2019-02-16T16:23:59.861Z,11.01
2019-02-16T16:26:35.518Z,11.05
2019-02-16T16:29:17.360Z,10.89
2019-02-16T16:31:59.606Z,10.95
2019-02-16T16:34:35.569Z,10.66
2019-02-16T16:37:14.636Z,10.65
2019-02-16T16:40:01.136Z,10.84
2019-02-16T16:42:32.966Z,10.83
2019-02-16T16:45:12.116Z,10.86
2019-02-16T16:47:58.745Z,10.85
2019-02-16T16:50:28.957Z,10.46
2019-02-16T16:53:15.516Z,10.33
2019-02-16T16:55:45.717Z,10.18
2019-02-16T16:58:21.920Z,9.99
2019-02-16T17:00:52.131Z,9.97
2019-02-16T17:03:22.343Z,10.21
2019-02-16T17:05:58.286Z,9.97
2019-02-16T17:08:37.478Z,10.27
2019-02-16T17:11:10.729Z,10.40
2019-02-16T17:13:43.371Z,10.27
2019-02-16T17:16:13.581Z,10.53
2019-02-16T17:18:52.814Z,10.25
2019-02-16T17:21:23.081Z,9.94
2019-02-16T17:23:59.175Z,9.73
2019-02-16T17:26:37.459Z,9.74
2019-02-16T17:29:13.066Z,9.46
2019-02-16T17:31:58.453Z,9.46
2019-02-16T17:34:47.070Z,9.46
2019-02-16T17:37:17.301Z,9.69
2019-02-16T17:39:53.608Z,9.67
2019-02-16T17:42:35.839Z,9.96
2019-02-16T17:45:14.103Z,9.84
2019-02-16T17:47:44.322Z,9.90
2019-02-16T17:50:29.489Z,9.90
2019-02-16T17:53:11.655Z,9.90
2019-02-16T17:55:57.027Z,9.76
2019-02-16T17:58:32.744Z,9.76
2019-02-16T18:01:05.391Z,9.25
2019-02-16T18:03:41.400Z,9.25
2019-02-16T18:06:11.605Z,8.97
2019-02-16T18:08:58.446Z,8.99
2019-02-16T18:11:43.852Z,8.97
2019-02-16T18:14:14.080Z,8.97
2019-02-16T18:16:59.405Z,8.72
2019-02-16T18:19:29.620Z,9.06
2019-02-16T18:21:59.884Z,9.06
2019-02-16T18:24:30.102Z,8.81
2019-02-16T18:27:06.111Z,8.66
2019-02-16T18:29:52.756Z,8.52
2019-02-16T18:32:31.983Z,8.39
2019-02-16T18:35:23.885Z,8.46
2019-02-16T18:37:52.318Z,8.80
2019-02-16T18:40:22.657Z,8.89
2019-02-16T18:42:55.778Z,8.87
2019-02-16T18:45:38.350Z,8.53
2019-02-16T18:48:12.149Z,8.53
2019-02-16T18:50:48.267Z,8.29
2019-02-16T18:53:27.494Z,8.12
2019-02-16T18:56:00.417Z,8.35
2019-02-16T18:58:47.094Z,8.65
2019-02-16T19:01:35.188Z,8.70
2019-02-16T19:04:08.313Z,8.55
2019-02-16T19:06:54.663Z,8.49
2019-02-16T19:09:24.950Z,8.60
2019-02-16T19:11:57.531Z,8.57
2019-02-16T19:14:42.767Z,8.43
2019-02-16T19:17:12.992Z,8.25
2019-02-16T19:19:49.137Z,8.02
2019-02-16T19:22:22.265Z,7.82
2019-02-16T19:24:52.472Z,7.73
2019-02-16T19:27:25.571Z,7.57
2019-02-16T19:30:07.782Z,7.63
2019-02-16T19:32:53.329Z,7.62
2019-02-16T19:35:23.586Z,7.69
2019-02-16T19:38:10.030Z,7.48
2019-02-16T19:40:40.298Z,7.50
2019-02-16T19:43:14.180Z,7.55
2019-02-16T19:45:44.394Z,7.47
2019-02-16T19:48:16.761Z,7.50
2019-02-16T19:50:52.914Z,7.56
2019-02-16T19:53:29.136Z,7.51
2019-02-16T19:56:11.600Z,7.63
2019-02-16T19:58:58.113Z,7.67
2019-02-16T20:01:44.961Z,7.61
2019-02-16T20:04:29.992Z,7.64
2019-02-16T20:07:16.264Z,7.75
2019-02-16T20:09:46.489Z,7.65
2019-02-16T20:12:33.199Z,7.81
2019-02-16T20:15:08.938Z,7.82
2019-02-16T20:17:39.171Z,7.83
2019-02-16T20:20:26.553Z,7.73
2019-02-16T20:23:13.032Z,7.88
2019-02-16T20:25:43.255Z,8.11
2019-02-16T20:28:28.558Z,8.05
2019-02-16T20:31:10.744Z,8.06
2019-02-16T20:33:52.997Z,8.00
2019-02-16T20:36:23.206Z,7.97
2019-02-16T20:38:59.216Z,7.82
2019-02-16T20:41:29.438Z,7.55
2019-02-16T20:44:02.730Z,7.42
2019-02-16T20:46:41.566Z,7.63
2019-02-16T20:49:23.630Z,7.51
2019-02-16T20:51:53.840Z,7.49
2019-02-16T20:54:27.023Z,7.62
2019-02-16T20:57:09.224Z,7.48
2019-02-16T20:59:39.536Z,7.38
2019-02-16T21:02:16.019Z,7.29
2019-02-16T21:04:46.257Z,7.24
2019-02-16T21:07:32.648Z,7.09
2019-02-16T21:10:18.083Z,7.09
2019-02-16T21:12:54.531Z,7.19
2019-02-16T21:15:24.754Z,7.09
2019-02-16T21:18:03.676Z,7.07
2019-02-16T21:20:33.902Z,7.23
2019-02-16T21:23:20.383Z,7.08
2019-02-16T21:25:59.602Z,6.91
2019-02-16T21:28:32.787Z,7.01
2019-02-16T21:31:05.850Z,7.15
2019-02-16T21:33:36.510Z,7.19
2019-02-16T21:36:09.285Z,7.06
2019-02-16T21:38:51.471Z,7.12
2019-02-16T21:41:36.831Z,7.15
2019-02-16T21:44:09.654Z,7.07
2019-02-16T21:46:39.934Z,6.78
2019-02-16T21:49:12.855Z,6.73
2019-02-16T21:51:58.967Z,6.64
2019-02-16T21:54:47.679Z,6.47
2019-02-16T21:57:20.590Z,6.51
2019-02-16T21:59:53.249Z,6.68
2019-02-16T22:02:23.525Z,6.53
2019-02-16T22:04:56.655Z,6.31
2019-02-16T22:07:26.872Z,6.32
2019-02-16T22:10:12.130Z,6.52
2019-02-16T22:12:45.197Z,6.40
2019-02-16T22:15:13.969Z,6.27
2019-02-16T22:17:42.549Z,6.42
2019-02-16T22:20:11.378Z,6.53
2019-02-16T22:22:39.958Z,6.32
2019-02-16T22:25:08.712Z,6.48
2019-02-16T22:27:37.478Z,6.49
2019-02-16T22:30:09.285Z,6.46
2019-02-16T22:32:38.157Z,6.37
2019-02-16T22:35:07.471Z,6.42
2019-02-16T22:37:36.043Z,6.33
2019-02-16T22:40:05.381Z,6.12
2019-02-16T22:42:33.956Z,6.19
2019-02-16T22:45:02.549Z,5.94
2019-02-16T22:47:31.115Z,5.95
2019-02-16T22:49:59.685Z,6.04
2019-02-16T22:52:28.279Z,5.81
2019-02-16T22:54:57.154Z,5.84
2019-02-16T22:57:25.745Z,5.95
2019-02-16T22:59:54.639Z,5.85
2019-02-16T23:02:23.235Z,5.84
2019-02-16T23:04:51.855Z,5.90
2019-02-16T23:07:20.423Z,5.87
2019-02-16T23:09:48.991Z,5.82
2019-02-16T23:12:17.893Z,5.94
2019-02-16T23:14:46.807Z,5.92
2019-02-16T23:17:15.407Z,5.76
2019-02-16T23:19:44.354Z,5.70
2019-02-16T23:22:12.929Z,5.65
2019-02-16T23:24:41.521Z,5.50
2019-02-16T23:27:10.402Z,5.48
2019-02-16T23:29:39.306Z,5.45
2019-02-16T23:32:07.944Z,5.37
2019-02-16T23:34:36.801Z,5.34
2019-02-16T23:37:05.685Z,5.20
2019-02-16T23:39:34.577Z,5.32
2019-02-16T23:42:03.438Z,5.17
2019-02-16T23:44:32.028Z,5.26
2019-02-16T23:47:00.909Z,5.12
2019-02-16T23:49:29.782Z,5.15
2019-02-16T23:51:58.663Z,5.11
2019-02-16T23:54:27.569Z,5.09
2019-02-16T23:56:56.456Z,5.24
2019-02-16T23:59:25.323Z,5.08
